createdAt,value
2022-11-30T00:01:54.334Z,1.80
2022-11-30T00:04:40.042Z,1.79
2022-11-30T00:07:26.128Z,1.77
2022-11-30T00:10:14.457Z,1.77
2022-11-30T00:13:00.396Z,1.75
2022-11-30T00:15:45.962Z,1.75
2022-11-30T00:18:31.247Z,1.76
2022-11-30T00:21:17.100Z,1.76
2022-11-30T00:24:04.695Z,1.77
2022-11-30T00:26:49.984Z,1.78
2022-11-30T00:29:35.396Z,1.77
2022-11-30T00:32:20.804Z,1.77
2022-11-30T00:35:06.602Z,1.79
2022-11-30T00:37:52.787Z,1.78
2022-11-30T00:40:38.408Z,1.79
2022-11-30T00:43:24.048Z,1.79
2022-11-30T00:46:10.403Z,1.80
2022-11-30T00:48:56.034Z,1.80
2022-11-30T00:51:41.539Z,1.81
2022-11-30T00:54:27.002Z,1.81
2022-11-30T00:57:12.858Z,1.82
2022-11-30T00:59:58.095Z,1.81
2022-11-30T01:02:43.766Z,1.81
2022-11-30T01:05:29.784Z,1.84
2022-11-30T01:08:16.243Z,1.81
2022-11-30T01:11:15.100Z,1.81
2022-11-30T01:14:01.019Z,1.82
2022-11-30T01:16:49.701Z,1.81
2022-11-30T01:19:37.810Z,1.81
2022-11-30T01:22:23.337Z,1.80
2022-11-30T01:25:09.397Z,1.79
2022-11-30T01:27:54.859Z,1.79
2022-11-30T01:30:40.341Z,1.79
2022-11-30T01:33:26.459Z,1.79
2022-11-30T01:36:17.874Z,1.80
2022-11-30T01:39:08.005Z,1.77
2022-11-30T01:41:55.235Z,1.76
2022-11-30T01:44:54.763Z,1.76
2022-11-30T01:47:53.615Z,1.76
2022-11-30T01:50:39.166Z,1.77
2022-11-30T01:53:24.983Z,1.76
2022-11-30T01:56:10.851Z,1.76
2022-11-30T01:58:56.426Z,1.78
2022-11-30T02:01:41.943Z,1.77
2022-11-30T02:04:34.764Z,1.79
2022-11-30T02:07:20.435Z,1.77
2022-11-30T02:10:06.880Z,1.79
2022-11-30T02:13:07.643Z,1.79
2022-11-30T02:16:01.035Z,1.80
2022-11-30T02:19:03.672Z,1.78
2022-11-30T02:21:56.615Z,1.77
2022-11-30T02:25:17.698Z,1.78
2022-11-30T02:28:21.301Z,1.79
2022-11-30T02:31:11.665Z,1.77
2022-11-30T02:33:58.752Z,1.78
2022-11-30T02:36:46.281Z,1.76
2022-11-30T02:39:31.604Z,1.76
2022-11-30T02:42:17.109Z,1.74
2022-11-30T02:45:02.885Z,1.74
2022-11-30T02:48:11.369Z,1.74
2022-11-30T02:51:02.536Z,1.72
2022-11-30T02:53:48.837Z,1.70
2022-11-30T02:56:34.914Z,1.70
2022-11-30T02:59:20.882Z,1.71
2022-11-30T03:02:06.581Z,1.73
2022-11-30T03:04:52.293Z,1.73
2022-11-30T03:07:37.940Z,1.73
2022-11-30T03:10:23.680Z,1.74
2022-11-30T03:13:09.077Z,1.77
2022-11-30T03:15:54.659Z,1.76
2022-11-30T03:18:40.962Z,1.76
2022-11-30T03:21:26.440Z,1.76
2022-11-30T03:24:12.273Z,1.77
2022-11-30T03:26:58.133Z,1.76
2022-11-30T03:29:43.355Z,1.77
2022-11-30T03:32:30.654Z,1.72
2022-11-30T03:35:15.812Z,1.70
2022-11-30T03:38:01.395Z,1.69
2022-11-30T03:40:46.784Z,1.71
2022-11-30T03:43:32.633Z,1.70
2022-11-30T03:46:18.243Z,1.68
2022-11-30T03:49:03.914Z,1.67
2022-11-30T03:51:48.918Z,1.66
2022-11-30T03:54:34.556Z,1.67
2022-11-30T03:57:19.970Z,1.66
2022-11-30T04:00:06.995Z,1.67
2022-11-30T04:02:57.454Z,1.66
2022-11-30T04:05:43.363Z,1.66
2022-11-30T04:08:30.358Z,1.66
2022-11-30T04:11:16.587Z,1.65
2022-11-30T04:14:02.263Z,1.64
2022-11-30T04:16:47.584Z,1.64
2022-11-30T04:19:33.012Z,1.64
2022-11-30T04:22:18.382Z,1.63
2022-11-30T04:25:04.046Z,1.63
2022-11-30T04:27:52.962Z,1.62
2022-11-30T04:30:38.476Z,1.61
2022-11-30T04:33:24.426Z,1.62
2022-11-30T04:36:19.237Z,1.58
2022-11-30T04:39:04.793Z,1.52
2022-11-30T04:41:50.324Z,1.53
2022-11-30T04:44:35.786Z,1.51
2022-11-30T04:47:21.258Z,1.51
2022-11-30T04:50:07.699Z,1.49
2022-11-30T04:52:53.431Z,1.53
2022-11-30T04:55:39.365Z,1.52
2022-11-30T04:58:25.207Z,1.56
2022-11-30T05:01:10.815Z,1.54
2022-11-30T05:03:59.972Z,1.52
2022-11-30T05:06:45.379Z,1.50
2022-11-30T05:09:30.858Z,1.49
2022-11-30T05:12:16.372Z,1.48
2022-11-30T05:15:01.923Z,1.47
2022-11-30T05:17:48.286Z,1.46
2022-11-30T05:20:33.904Z,1.47
2022-11-30T05:23:20.291Z,1.46
2022-11-30T05:26:05.699Z,1.48
2022-11-30T05:28:51.087Z,1.47
2022-11-30T05:31:38.836Z,1.48
2022-11-30T05:34:24.377Z,1.49
2022-11-30T05:37:10.126Z,1.48
2022-11-30T05:39:55.652Z,1.48
2022-11-30T05:42:41.399Z,1.47
2022-11-30T05:45:27.756Z,1.48
2022-11-30T05:48:13.107Z,1.44
2022-11-30T05:51:11.821Z,1.42
2022-11-30T05:53:58.698Z,1.41
2022-11-30T05:56:44.330Z,1.40
2022-11-30T05:59:29.898Z,1.38
2022-11-30T06:02:15.442Z,1.37
2022-11-30T06:05:01.326Z,1.36
2022-11-30T06:07:47.117Z,1.35
2022-11-30T06:10:32.756Z,1.38
2022-11-30T06:13:19.096Z,1.37
2022-11-30T06:16:05.761Z,1.38
2022-11-30T06:18:52.587Z,1.36
2022-11-30T06:21:37.994Z,1.36
2022-11-30T06:24:23.532Z,1.36
2022-11-30T06:27:09.123Z,1.35
2022-11-30T06:29:54.955Z,1.37
2022-11-30T06:32:40.421Z,1.37
2022-11-30T06:35:26.462Z,1.37
2022-11-30T06:38:12.250Z,1.36
2022-11-30T06:41:07.546Z,1.35
2022-11-30T06:43:53.081Z,1.35
2022-11-30T06:46:38.445Z,1.34
2022-11-30T06:49:23.845Z,1.35
2022-11-30T06:52:09.400Z,1.36
2022-11-30T06:54:55.030Z,1.36
2022-11-30T06:57:40.600Z,1.35
2022-11-30T07:00:25.945Z,1.35
2022-11-30T07:03:12.092Z,1.36
2022-11-30T07:05:57.473Z,1.35
2022-11-30T07:08:44.026Z,1.34
2022-11-30T07:11:29.169Z,1.34
2022-11-30T07:14:15.047Z,1.34
2022-11-30T07:17:04.612Z,1.34
2022-11-30T07:19:50.299Z,1.35
2022-11-30T07:22:35.599Z,1.35
2022-11-30T07:25:39.713Z,1.35
2022-11-30T07:28:24.884Z,1.35
2022-11-30T07:31:43.898Z,1.34
2022-11-30T07:34:29.057Z,1.34
2022-11-30T07:37:14.815Z,1.33
2022-11-30T07:40:00.244Z,1.32
2022-11-30T07:42:46.122Z,1.33
2022-11-30T07:45:31.608Z,1.33
2022-11-30T07:48:16.878Z,1.32
2022-11-30T07:51:17.547Z,1.33
2022-11-30T07:54:03.670Z,1.33
2022-11-30T07:56:49.295Z,1.30
2022-11-30T07:59:34.861Z,1.26
2022-11-30T08:02:20.631Z,1.26
2022-11-30T08:05:06.894Z,1.24
2022-11-30T08:07:54.134Z,1.22
2022-11-30T08:10:39.558Z,1.24
2022-11-30T08:13:25.439Z,1.22
2022-11-30T08:16:13.590Z,1.22
2022-11-30T08:18:59.030Z,1.23
2022-11-30T08:21:44.648Z,1.24
2022-11-30T08:24:32.863Z,1.24
2022-11-30T08:27:18.247Z,1.26
2022-11-30T08:30:04.614Z,1.28
2022-11-30T08:32:50.505Z,1.28
2022-11-30T08:35:36.193Z,1.28
2022-11-30T08:38:21.926Z,1.29
2022-11-30T08:41:08.829Z,1.30
2022-11-30T08:43:54.641Z,1.31
2022-11-30T08:46:51.454Z,1.33
2022-11-30T08:49:38.809Z,1.34
2022-11-30T08:52:24.976Z,1.35
2022-11-30T08:55:10.630Z,1.34
2022-11-30T08:57:56.355Z,1.36
2022-11-30T09:00:42.132Z,1.40
2022-11-30T09:03:27.389Z,1.41
2022-11-30T09:06:18.879Z,1.43
2022-11-30T09:09:04.411Z,1.44
2022-11-30T09:11:50.453Z,1.46
2022-11-30T09:14:36.440Z,1.43
2022-11-30T09:17:22.119Z,1.45
2022-11-30T09:20:08.166Z,1.47
2022-11-30T09:22:54.000Z,1.47
2022-11-30T09:25:39.134Z,1.49
2022-11-30T09:28:25.101Z,1.50
2022-11-30T09:31:19.182Z,1.52
2022-11-30T09:34:04.990Z,1.56
2022-11-30T09:36:50.306Z,1.59
2022-11-30T09:39:35.908Z,1.62
2022-11-30T09:42:43.879Z,1.60
2022-11-30T09:45:32.083Z,1.60
2022-11-30T09:48:40.771Z,1.62
2022-11-30T09:51:47.850Z,1.63
2022-11-30T09:54:44.338Z,1.66
2022-11-30T09:57:30.180Z,1.64
2022-11-30T10:00:22.163Z,1.64
2022-11-30T10:03:07.724Z,1.63
2022-11-30T10:06:08.847Z,1.62
2022-11-30T10:09:33.498Z,1.60
2022-11-30T10:12:29.171Z,1.64
2022-11-30T10:15:24.034Z,1.63
2022-11-30T10:18:38.504Z,1.65
2022-11-30T10:21:43.921Z,1.66
2022-11-30T10:25:02.104Z,1.64
2022-11-30T10:27:51.114Z,1.63
2022-11-30T10:30:36.897Z,1.62
2022-11-30T10:33:37.024Z,1.63
2022-11-30T10:36:33.842Z,1.63
2022-11-30T10:39:29.756Z,1.63
2022-11-30T10:42:24.570Z,1.63
2022-11-30T10:45:17.826Z,1.64
2022-11-30T10:48:15.199Z,1.64
2022-11-30T10:51:02.518Z,1.63
2022-11-30T10:53:48.140Z,1.63
2022-11-30T10:56:33.961Z,1.63
2022-11-30T10:59:34.519Z,1.60
2022-11-30T11:02:39.193Z,1.60
2022-11-30T11:05:26.206Z,1.64
2022-11-30T11:08:24.807Z,1.62
2022-11-30T11:11:45.872Z,1.61
2022-11-30T11:14:37.485Z,1.60
2022-11-30T11:17:26.475Z,1.61
2022-11-30T11:20:36.951Z,1.62
2022-11-30T11:23:32.675Z,1.62
2022-11-30T11:26:23.505Z,1.63
2022-11-30T11:29:33.053Z,1.62
2022-11-30T11:32:27.650Z,1.66
2022-11-30T11:35:33.984Z,1.68
2022-11-30T11:38:29.689Z,1.68
2022-11-30T11:41:34.975Z,1.70
2022-11-30T11:44:22.945Z,1.70
2022-11-30T11:47:25.580Z,1.73
2022-11-30T11:50:49.917Z,1.74
2022-11-30T11:53:47.325Z,1.77
2022-11-30T11:56:37.477Z,1.78
2022-11-30T11:59:47.735Z,1.81
2022-11-30T12:02:47.204Z,1.83
2022-11-30T12:05:51.633Z,1.85
2022-11-30T12:08:58.911Z,1.86
2022-11-30T12:11:47.541Z,1.86
2022-11-30T12:14:35.441Z,1.84
2022-11-30T12:17:49.759Z,1.82
2022-11-30T12:20:56.589Z,1.82
2022-11-30T12:24:25.280Z,1.81
2022-11-30T12:27:30.874Z,1.83
2022-11-30T12:30:29.399Z,1.84
2022-11-30T12:34:04.595Z,1.83
2022-11-30T12:37:18.332Z,1.81
2022-11-30T12:40:29.337Z,1.79
2022-11-30T12:43:15.048Z,1.77
2022-11-30T12:46:22.830Z,1.77
2022-11-30T12:49:14.556Z,1.80
2022-11-30T12:52:00.009Z,1.82
2022-11-30T12:55:05.643Z,1.82
2022-11-30T12:58:13.146Z,1.83
2022-11-30T13:01:23.666Z,1.81
2022-11-30T13:04:19.675Z,1.81
2022-11-30T13:07:15.660Z,1.79
2022-11-30T13:10:27.298Z,1.75
2022-11-30T13:13:17.146Z,1.72
2022-11-30T13:16:06.184Z,1.70
2022-11-30T13:18:56.024Z,1.70
2022-11-30T13:21:47.904Z,1.69
2022-11-30T13:24:41.518Z,1.69
2022-11-30T13:27:45.022Z,1.68
2022-11-30T13:30:58.069Z,1.68
2022-11-30T13:33:51.984Z,1.69
2022-11-30T13:36:45.206Z,1.69
2022-11-30T13:39:37.761Z,1.68
2022-11-30T13:42:26.516Z,1.67
2022-11-30T13:45:11.979Z,1.64
2022-11-30T13:47:58.871Z,1.65
2022-11-30T13:50:48.020Z,1.67
2022-11-30T13:53:39.119Z,1.68
2022-11-30T13:56:34.162Z,1.68
2022-11-30T13:59:23.439Z,1.67
2022-11-30T14:02:42.078Z,1.65
2022-11-30T14:05:39.941Z,1.65
2022-11-30T14:08:37.681Z,1.65
2022-11-30T14:11:39.409Z,1.64
2022-11-30T14:14:46.211Z,1.63
2022-11-30T14:17:35.630Z,1.67
2022-11-30T14:20:24.641Z,1.69
2022-11-30T14:23:21.806Z,1.71
2022-11-30T14:26:11.308Z,1.73
2022-11-30T14:29:07.555Z,1.74
2022-11-30T14:32:07.460Z,1.76
2022-11-30T14:35:03.269Z,1.79
2022-11-30T14:37:57.749Z,1.79
2022-11-30T14:40:51.620Z,1.81
2022-11-30T14:43:37.304Z,1.80
2022-11-30T14:46:24.918Z,1.79
2022-11-30T14:49:30.943Z,1.80
2022-11-30T14:52:37.788Z,1.81
2022-11-30T14:55:45.783Z,1.81
2022-11-30T14:58:37.483Z,1.81
2022-11-30T15:01:28.816Z,1.79
2022-11-30T15:04:17.496Z,1.79
2022-11-30T15:07:03.336Z,1.80
2022-11-30T15:09:52.017Z,1.79
2022-11-30T15:12:40.652Z,1.81
2022-11-30T15:15:31.448Z,1.81
2022-11-30T15:18:19.502Z,1.81
2022-11-30T15:21:17.379Z,1.80
2022-11-30T15:24:03.210Z,1.80
2022-11-30T15:26:51.618Z,1.81
2022-11-30T15:29:46.134Z,1.79
2022-11-30T15:32:32.054Z,1.80
2022-11-30T15:35:20.351Z,1.79
2022-11-30T15:38:09.122Z,1.79
2022-11-30T15:41:03.597Z,1.78
2022-11-30T15:43:52.604Z,1.77
2022-11-30T15:46:46.380Z,1.76
2022-11-30T15:49:34.115Z,1.76
2022-11-30T15:52:20.582Z,1.76
2022-11-30T15:55:06.980Z,1.76
2022-11-30T15:58:00.485Z,1.75
2022-11-30T16:00:59.362Z,1.72
2022-11-30T16:04:03.580Z,1.76
2022-11-30T16:06:49.294Z,1.76
2022-11-30T16:09:36.051Z,1.76
2022-11-30T16:12:32.060Z,1.75
2022-11-30T16:15:30.815Z,1.80
2022-11-30T16:18:22.271Z,1.81
2022-11-30T16:21:12.790Z,1.82
2022-11-30T16:23:58.451Z,1.82
2022-11-30T16:26:51.133Z,1.82
2022-11-30T16:29:37.324Z,1.83
2022-11-30T16:32:22.831Z,1.84
2022-11-30T16:35:16.899Z,1.85
2022-11-30T16:38:02.946Z,1.86
2022-11-30T16:40:48.632Z,1.84
2022-11-30T16:43:33.804Z,1.85
2022-11-30T16:46:24.640Z,1.82
2022-11-30T16:49:09.900Z,1.83
2022-11-30T16:51:55.334Z,1.86
2022-11-30T16:54:40.857Z,1.86
2022-11-30T16:57:26.377Z,1.85
2022-11-30T17:00:14.570Z,1.88
2022-11-30T17:03:08.302Z,1.88
2022-11-30T17:05:54.079Z,1.88
2022-11-30T17:08:39.535Z,1.89
2022-11-30T17:11:37.170Z,1.90
2022-11-30T17:14:22.476Z,1.91
2022-11-30T17:17:08.351Z,1.92
2022-11-30T17:19:53.785Z,1.92
2022-11-30T17:22:40.111Z,1.92
2022-11-30T17:25:25.698Z,1.92
2022-11-30T17:28:11.101Z,1.92
2022-11-30T17:30:56.648Z,1.91
2022-11-30T17:33:47.914Z,1.93
2022-11-30T17:36:34.500Z,1.92
2022-11-30T17:39:19.999Z,1.93
2022-11-30T17:42:05.659Z,1.92
2022-11-30T17:44:51.167Z,1.95
2022-11-30T17:47:37.203Z,1.94
2022-11-30T17:50:22.784Z,1.95
2022-11-30T17:53:08.146Z,1.97
2022-11-30T17:56:11.772Z,1.97
2022-11-30T17:58:59.515Z,1.98
2022-11-30T18:01:44.857Z,2.00
2022-11-30T18:04:31.227Z,2.01
2022-11-30T18:07:17.149Z,2.02
2022-11-30T18:10:02.715Z,2.01
2022-11-30T18:12:48.198Z,2.02
2022-11-30T18:15:33.819Z,2.03
2022-11-30T18:18:19.538Z,2.03
2022-11-30T18:21:09.758Z,2.03
2022-11-30T18:23:56.962Z,2.02
2022-11-30T18:26:42.031Z,2.02
2022-11-30T18:29:28.049Z,2.02
2022-11-30T18:32:13.596Z,2.02
2022-11-30T18:34:58.970Z,2.03
2022-11-30T18:37:44.769Z,2.04
2022-11-30T18:40:30.430Z,2.03
2022-11-30T18:43:16.292Z,2.03
2022-11-30T18:46:06.078Z,2.04
2022-11-30T18:48:53.128Z,2.04
2022-11-30T18:51:38.951Z,2.04
2022-11-30T18:54:25.491Z,2.05
2022-11-30T18:57:11.528Z,2.04
2022-11-30T18:59:57.600Z,2.04
2022-11-30T19:02:48.017Z,2.05
2022-11-30T19:05:38.639Z,2.05
2022-11-30T19:08:24.388Z,2.06
2022-11-30T19:11:10.838Z,2.05
2022-11-30T19:13:58.496Z,2.04
2022-11-30T19:16:44.834Z,2.04
2022-11-30T19:19:30.760Z,2.04
2022-11-30T19:22:16.698Z,2.04
2022-11-30T19:25:02.557Z,2.05
2022-11-30T19:27:47.880Z,2.05
2022-11-30T19:30:33.607Z,2.05
2022-11-30T19:33:19.279Z,2.04
2022-11-30T19:36:07.087Z,2.04
2022-11-30T19:38:52.785Z,2.03
2022-11-30T19:41:38.085Z,2.04
2022-11-30T19:44:23.414Z,2.05
2022-11-30T19:47:09.548Z,2.04
2022-11-30T19:49:54.872Z,2.04
2022-11-30T19:52:40.358Z,2.05
2022-11-30T19:55:25.890Z,2.04
2022-11-30T19:58:11.354Z,2.04
2022-11-30T20:00:56.608Z,2.04
2022-11-30T20:03:42.506Z,2.04
2022-11-30T20:06:36.162Z,2.03
2022-11-30T20:09:21.943Z,2.03
2022-11-30T20:12:07.324Z,2.03
2022-11-30T20:14:53.132Z,2.03
2022-11-30T20:17:38.985Z,2.01
2022-11-30T20:20:25.016Z,2.02
2022-11-30T20:23:10.612Z,2.02
2022-11-30T20:25:56.237Z,2.02
2022-11-30T20:28:41.999Z,2.02
2022-11-30T20:31:29.452Z,2.02
2022-11-30T20:34:15.772Z,2.03
2022-11-30T20:37:01.233Z,2.01
2022-11-30T20:39:46.838Z,2.00
2022-11-30T20:42:32.554Z,2.00
2022-11-30T20:45:18.191Z,1.99
2022-11-30T20:48:03.801Z,2.00
2022-11-30T20:51:14.043Z,2.01
2022-11-30T20:53:55.204Z,2.00
2022-11-30T20:56:42.160Z,2.01
2022-11-30T20:59:27.919Z,2.02
2022-11-30T21:02:13.794Z,2.01
2022-11-30T21:04:59.242Z,2.02
2022-11-30T21:07:49.153Z,2.03
2022-11-30T21:10:38.935Z,2.03
2022-11-30T21:13:23.915Z,2.03
2022-11-30T21:16:10.107Z,2.04
2022-11-30T21:18:56.896Z,2.05
2022-11-30T21:21:42.061Z,2.05
2022-11-30T21:24:27.742Z,2.06
2022-11-30T21:27:13.426Z,2.06
2022-11-30T21:29:58.828Z,2.06
2022-11-30T21:32:44.258Z,2.06
2022-11-30T21:35:29.875Z,2.09
2022-11-30T21:38:15.452Z,2.09
2022-11-30T21:41:02.085Z,2.10
2022-11-30T21:43:47.407Z,2.10
2022-11-30T21:46:33.060Z,2.11
2022-11-30T21:49:19.184Z,2.12
2022-11-30T21:52:04.570Z,2.12
2022-11-30T21:54:53.550Z,2.12
2022-11-30T21:57:39.493Z,2.11
2022-11-30T22:00:25.332Z,2.09
2022-11-30T22:03:12.906Z,2.08
2022-11-30T22:06:09.790Z,2.07
2022-11-30T22:09:03.388Z,2.07
2022-11-30T22:11:49.425Z,2.06
2022-11-30T22:14:36.381Z,2.06
2022-11-30T22:17:21.768Z,2.03
2022-11-30T22:20:07.983Z,2.02
2022-11-30T22:22:53.515Z,2.01
2022-11-30T22:25:39.028Z,2.00
2022-11-30T22:28:24.793Z,1.98
2022-11-30T22:31:12.253Z,1.97
2022-11-30T22:33:59.122Z,1.97
2022-11-30T22:36:45.325Z,1.96
2022-11-30T22:39:30.623Z,1.95
2022-11-30T22:42:15.842Z,1.94
2022-11-30T22:45:01.383Z,1.93
2022-11-30T22:47:47.007Z,1.93
2022-11-30T22:50:34.111Z,1.93
2022-11-30T22:53:19.864Z,1.93
2022-11-30T22:56:08.772Z,1.93
2022-11-30T22:58:56.675Z,1.91
2022-11-30T23:01:43.605Z,1.91
2022-11-30T23:04:29.543Z,1.91
2022-11-30T23:07:15.539Z,1.89
2022-11-30T23:10:01.022Z,1.90
2022-11-30T23:13:01.958Z,1.89
2022-11-30T23:15:49.625Z,1.90
2022-11-30T23:18:46.437Z,1.90
2022-11-30T23:21:40.541Z,1.91
2022-11-30T23:24:26.696Z,1.91
2022-11-30T23:27:12.486Z,1.91
2022-11-30T23:29:58.522Z,1.91
2022-11-30T23:32:43.908Z,1.92
2022-11-30T23:35:29.475Z,1.91
2022-11-30T23:38:14.984Z,1.91
2022-11-30T23:41:08.695Z,1.90
2022-11-30T23:43:54.634Z,1.90
2022-11-30T23:46:40.289Z,1.90
2022-11-30T23:49:25.577Z,1.90
2022-11-30T23:52:11.022Z,1.89
2022-11-30T23:54:56.618Z,1.90
2022-11-30T23:57:42.183Z,1.89
